Time;durP1;ratioP1;P1;durP2;ratioP2;P2;SDS_P1;SDS_P2;PMS_P1;PMS_P2;Temp;Humidity;BMP_temperature;BMP_pressure;BME280_temperature;BME280_humidity;BME280_pressure;Samples;Min_cycle;Max_cycle;Signal;HPM_P1;HPM_P2
2021/05/06 00:01:52;;;;;;;15.67;5.70;;;;;;;14.96;100.00;100713.28;5113101;28;20394;-74
2021/05/06 00:07:34;;;;;;;12.37;6.67;;;;;;;14.92;100.00;100701.28;5112380;28;20421;-74
2021/05/06 00:33:55;;;;;;;13.40;6.97;;;;;;;14.91;100.00;100671.34;5112209;28;20377;-74
2021/05/06 00:36:21;;;;;;;14.63;7.47;;;;;;;14.85;100.00;100676.34;5112167;28;20585;-74
2021/05/06 00:41:42;;;;;;;13.63;7.67;;;;;;;14.85;100.00;100668.41;5112479;28;20158;-74
2021/05/06 01:04:48;;;;;;;14.70;8.60;;;;;;;14.87;100.00;100671.75;5111705;28;20377;-77
2021/05/06 01:09:54;;;;;;;13.83;6.50;;;;;;;14.86;100.00;100662.13;5111761;28;20390;-77
2021/05/06 01:12:20;;;;;;;11.10;6.90;;;;;;;14.81;100.00;100659.91;5111662;28;20401;-75
2021/05/06 01:14:46;;;;;;;16.00;7.80;;;;;;;14.82;100.00;100650.16;5111459;28;21010;-75
2021/05/06 01:17:11;;;;;;;14.90;7.77;;;;;;;14.86;100.00;100662.13;5111501;28;20167;-76
2021/05/06 01:19:37;;;;;;;12.50;7.13;;;;;;;14.87;100.00;100658.50;5112807;28;20170;-76
2021/05/06 01:22:03;;;;;;;12.30;6.80;;;;;;;14.82;100.00;100656.28;5115558;28;20163;-76
2021/05/06 01:24:29;;;;;;;16.50;7.13;;;;;;;14.81;100.00;100651.09;5115829;28;20159;-76
2021/05/06 01:27:06;;;;;;;10.53;7.00;;;;;;;14.80;100.00;100647.63;5115690;28;20930;-74
2021/05/06 01:29:44;;;;;;;15.00;7.43;;;;;;;14.84;100.00;100651.69;5115850;28;20159;-73
2021/05/06 01:32:21;;;;;;;19.07;7.80;;;;;;;14.81;100.00;100659.03;5115554;28;20393;-75
2021/05/06 01:34:53;;;;;;;13.73;8.87;;;;;;;14.76;100.00;100656.81;5115479;28;20403;-74
2021/05/06 01:37:31;;;;;;;13.73;9.23;;;;;;;14.82;100.00;100658.94;5114194;28;20462;-73
2021/05/06 01:42:31;;;;;;;20.60;7.80;;;;;;;14.81;100.00;100659.03;5115788;28;20397;-70
2021/05/06 01:58:28;;;;;;;19.57;7.53;;;;;;;14.77;100.00;100660.28;5115203;28;20801;-76
2021/05/06 02:01:06;;;;;;;16.10;7.23;;;;;;;14.78;100.00;100646.91;5114854;28;20408;-73
2021/05/06 02:03:33;;;;;;;16.53;7.27;;;;;;;14.84;100.00;100646.41;5113804;28;20413;-74
2021/05/06 02:06:00;;;;;;;21.97;7.63;;;;;;;14.87;100.00;100642.63;5114816;28;20433;-73
2021/05/06 02:08:26;;;;;;;12.60;7.20;;;;;;;14.85;100.00;100647.22;5114667;28;20452;-71
2021/05/06 02:10:56;;;;;;;14.03;6.90;;;;;;;14.85;100.00;100647.22;5114788;28;20397;-73
2021/05/06 02:13:22;;;;;;;14.87;7.30;;;;;;;14.75;100.00;100643.72;5114702;28;20393;-69
2021/05/06 02:15:57;;;;;;;15.47;7.60;;;;;;;14.75;100.00;100652.47;5114483;27;20409;-75
2021/05/06 02:18:24;;;;;;;16.87;7.20;;;;;;;14.77;100.00;100653.19;5114821;27;20628;-74
2021/05/06 02:20:51;;;;;;;12.30;7.23;;;;;;;14.77;100.00;100660.28;5114572;27;20774;-75
2021/05/06 02:23:17;;;;;;;13.93;7.60;;;;;;;14.81;100.00;100661.69;5114729;28;20401;-74
2021/05/06 02:25:43;;;;;;;19.33;8.03;;;;;;;14.83;100.00;100668.53;5114570;28;20389;-72
2021/05/06 02:28:09;;;;;;;23.97;8.23;;;;;;;14.70;100.00;100667.91;5114650;28;20560;-75
2021/05/06 02:30:36;;;;;;;16.33;8.10;;;;;;;14.75;100.00;100670.16;5114194;28;20409;-71
2021/05/06 02:33:05;;;;;;;19.87;8.20;;;;;;;14.83;100.00;100673.00;5114289;28;20389;-76
2021/05/06 02:35:30;;;;;;;17.30;7.17;;;;;;;14.80;100.00;100675.88;5114239;28;20404;-75
2021/05/06 02:37:56;;;;;;;11.10;7.80;;;;;;;14.76;100.00;100671.84;5114231;28;20906;-74
2021/05/06 02:40:21;;;;;;;14.07;8.17;;;;;;;14.79;100.00;100674.19;5114465;28;20159;-76
2021/05/06 02:42:47;;;;;;;11.17;7.67;;;;;;;14.79;100.00;100674.19;5114202;28;20163;-76
2021/05/06 02:45:13;;;;;;;14.00;7.83;;;;;;;14.78;100.00;100672.53;5114072;28;20163;-77
2021/05/06 02:47:38;;;;;;;15.77;8.80;;;;;;;14.85;100.00;100674.53;5114251;28;20705;-77
2021/05/06 02:50:08;;;;;;;17.43;7.90;;;;;;;14.83;100.00;100678.28;5114257;28;20692;-77
2021/05/06 02:52:46;;;;;;;15.70;7.83;;;;;;;14.88;100.00;100673.41;5114260;28;20532;-76
2021/05/06 02:57:41;;;;;;;14.17;7.80;;;;;;;14.86;100.00;100678.00;5114057;28;20389;-76
2021/05/06 03:02:55;;;;;;;23.73;8.90;;;;;;;14.89;100.00;100690.97;5113726;28;20372;-76
2021/05/06 03:05:25;;;;;;;14.40;8.60;;;;;;;14.91;100.00;100684.59;5113959;28;20979;-76
2021/05/06 03:23:29;;;;;;;10.37;7.20;;;;;;;14.90;100.00;100737.63;5113402;27;20377;-71
2021/05/06 03:25:57;;;;;;;12.93;6.87;;;;;;;14.86;100.00;100729.09;5113383;28;20873;-70
2021/05/06 03:28:29;;;;;;;14.67;6.97;;;;;;;14.74;100.00;100734.63;5113171;28;20193;-75
2021/05/06 04:17:26;;;;;;;17.00;10.90;;;;;;;15.03;100.00;100799.09;5112677;28;20396;-76
2021/05/06 04:27:18;;;;;;;17.27;11.33;;;;;;;15.64;100.00;100793.03;5112242;28;20492;-71
2021/05/06 04:37:43;;;;;;;23.60;16.27;;;;;;;15.67;100.00;100798.91;5112253;28;20380;-75
2021/05/06 04:45:57;;;;;;;21.63;12.70;;;;;;;15.58;100.00;100799.69;5112000;28;21017;-74
2021/05/06 04:54:22;;;;;;;21.20;10.60;;;;;;;15.70;100.00;100808.41;5111377;28;20756;-73
2021/05/06 05:07:19;;;;;;;14.60;7.73;;;;;;;15.89;100.00;100815.59;5088926;28;20934;-74
2021/05/06 05:20:07;;;;;;;13.73;8.27;;;;;;;15.09;100.00;100814.47;5111741;28;20396;-75
2021/05/06 05:25:29;;;;;;;10.80;8.60;;;;;;;14.90;100.00;100832.88;5111483;28;20934;-74
2021/05/06 05:27:59;;;;;;;13.70;9.47;;;;;;;14.81;100.00;100829.19;5111465;28;21001;-74
2021/05/06 05:30:27;;;;;;;15.63;10.00;;;;;;;14.87;100.00;100820.72;5111117;28;20408;-74
2021/05/06 05:32:52;;;;;;;19.83;10.20;;;;;;;14.85;100.00;100819.19;5111489;28;20400;-75
2021/05/06 05:38:03;;;;;;;16.50;11.77;;;;;;;14.77;100.00;100829.56;5111436;28;20159;-74
2021/05/06 05:40:38;;;;;;;14.17;11.30;;;;;;;14.83;100.00;100824.59;5111557;28;20493;-74
2021/05/06 05:56:16;;;;;;;22.30;14.67;;;;;;;15.22;100.00;100832.81;5111372;28;20442;-72
2021/05/06 05:58:41;;;;;;;22.47;15.53;;;;;;;15.37;100.00;100831.50;5111060;28;20389;-74
2021/05/06 06:01:07;;;;;;;21.70;13.47;;;;;;;15.57;100.00;100840.41;5111261;28;20163;-74
2021/05/06 06:03:32;;;;;;;21.23;15.07;;;;;;;15.62;100.00;100835.56;5111039;28;20164;-74
2021/05/06 06:05:59;;;;;;;19.23;14.70;;;;;;;15.62;100.00;100840.84;5110147;28;20692;-74
2021/05/06 06:08:26;;;;;;;20.57;15.37;;;;;;;15.81;100.00;100838.28;5114710;28;20191;-72
2021/05/06 06:10:52;;;;;;;22.37;15.73;;;;;;;15.84;100.00;100844.28;5115010;28;20875;-74
2021/05/06 06:13:17;;;;;;;24.03;16.63;;;;;;;15.95;100.00;100836.25;5114615;28;20476;-74
2021/05/06 06:18:15;;;;;;;25.20;16.80;;;;;;;16.35;100.00;100845.00;5114749;28;20234;-73
2021/05/06 06:20:44;;;;;;;31.10;17.40;;;;;;;16.56;100.00;100839.56;5114553;27;20533;-73
2021/05/06 06:23:10;;;;;;;24.80;17.53;;;;;;;16.58;100.00;100837.63;5113008;28;20432;-71
2021/05/06 06:25:35;;;;;;;24.00;16.40;;;;;;;16.60;100.00;100837.47;5114470;28;20401;-74
2021/05/06 06:28:01;;;;;;;27.17;20.10;;;;;;;16.76;100.00;100829.81;5114202;28;20199;-73
2021/05/06 06:30:27;;;;;;;32.90;19.73;;;;;;;16.85;100.00;100834.31;5114237;28;20227;-73
2021/05/06 06:32:53;;;;;;;37.77;23.90;;;;;;;16.78;100.00;100832.34;5114684;28;20727;-73
2021/05/06 06:35:19;;;;;;;33.20;22.60;;;;;;;16.73;100.00;100839.88;5112877;28;20411;-74
2021/05/06 06:37:44;;;;;;;29.23;20.30;;;;;;;16.74;100.00;100839.75;5114438;27;21018;-73
2021/05/06 06:40:11;;;;;;;32.10;21.13;;;;;;;16.82;100.00;100831.91;5113963;28;20746;-75
2021/05/06 06:42:36;;;;;;;30.77;18.30;;;;;;;17.04;100.00;100838.75;5114161;28;20159;-73
2021/05/06 06:45:02;;;;;;;30.27;19.80;;;;;;;17.11;100.00;100833.72;5113893;28;20404;-73
2021/05/06 06:47:27;;;;;;;30.37;19.70;;;;;;;17.29;100.00;100831.97;5113688;28;20764;-73
2021/05/06 06:49:53;;;;;;;27.50;17.27;;;;;;;17.50;100.00;100838.94;5113912;28;20393;-71
2021/05/06 06:52:18;;;;;;;25.53;18.13;;;;;;;17.61;100.00;100836.94;5113850;28;20589;-70
2021/05/06 06:54:46;;;;;;;18.63;14.60;;;;;;;17.69;100.00;100833.56;5113741;27;20801;-74
2021/05/06 06:57:12;;;;;;;25.23;15.53;;;;;;;17.69;100.00;100847.69;5113912;28;20534;-74
2021/05/06 06:59:37;;;;;;;20.70;12.87;;;;;;;17.79;100.00;100836.19;5113525;28;20891;-71
2021/05/06 07:02:03;;;;;;;20.07;12.20;;;;;;;17.87;100.00;100837.13;5113771;27;20238;-71
2021/05/06 07:04:28;;;;;;;21.57;13.77;;;;;;;18.03;100.00;100839.16;5113683;28;20284;-72
2021/05/06 07:06:54;;;;;;;22.00;13.77;;;;;;;18.26;100.00;100842.22;5113444;28;20319;-73
2021/05/06 07:09:20;;;;;;;23.10;15.03;;;;;;;18.47;100.00;100837.47;5112135;28;20159;-74
2021/05/06 07:11:45;;;;;;;17.87;12.47;;;;;;;18.70;100.00;100831.72;5113411;28;20534;-70
2021/05/06 07:14:11;;;;;;;21.67;13.33;;;;;;;18.89;100.00;100830.72;5113378;28;20162;-73
2021/05/06 07:16:36;;;;;;;17.43;12.60;;;;;;;19.01;100.00;100832.97;5113095;28;20163;-72
2021/05/06 07:19:02;;;;;;;14.50;11.17;;;;;;;19.16;100.00;100835.91;5113127;28;20163;-70
2021/05/06 07:21:28;;;;;;;17.07;11.67;;;;;;;19.36;100.00;100831.25;5113148;28;20548;-74
2021/05/06 07:23:54;;;;;;;16.73;9.80;;;;;;;19.50;100.00;100825.31;5113348;28;20168;-70
2021/05/06 07:26:22;;;;;;;19.77;10.07;;;;;;;19.78;100.00;100823.31;5113211;28;20724;-72
2021/05/06 07:28:50;;;;;;;19.07;8.40;;;;;;;20.04;100.00;100835.75;5111722;28;20597;-70
2021/05/06 07:31:15;;;;;;;14.93;7.63;;;;;;;20.23;100.00;100820.28;5113044;28;20910;-74
2021/05/06 07:33:43;;;;;;;13.00;7.90;;;;;;;20.41;100.00;100827.34;5112938;28;20401;-72
2021/05/06 07:36:10;;;;;;;11.90;5.13;;;;;;;20.51;100.00;100825.41;5111514;28;20159;-73
2021/05/06 07:38:36;;;;;;;8.93;3.90;;;;;;;20.65;100.00;100823.91;5112679;28;20913;-71
2021/05/06 07:41:01;;;;;;;6.30;4.03;;;;;;;20.95;100.00;100830.44;5112531;28;20470;-73
2021/05/06 07:43:29;;;;;;;9.73;3.67;;;;;;;21.19;100.00;100825.06;5112609;27;20163;-74
2021/05/06 07:45:55;;;;;;;5.67;3.73;;;;;;;21.40;100.00;100831.75;5112546;28;20238;-73
2021/05/06 07:48:20;;;;;;;7.97;3.97;;;;;;;21.48;100.00;100824.53;5112069;28;20481;-70
2021/05/06 07:50:46;;;;;;;10.03;3.90;;;;;;;21.54;100.00;100828.38;5112678;28;20594;-76
2021/05/06 07:53:14;;;;;;;5.50;3.50;;;;;;;21.58;100.00;100835.03;5112562;28;20194;-75
2021/05/06 07:55:39;;;;;;;6.60;3.30;;;;;;;21.73;100.00;100830.63;5111922;27;20208;-71
2021/05/06 07:58:05;;;;;;;5.20;2.90;;;;;;;21.73;100.00;100832.47;5112129;28;20397;-75
2021/05/06 08:00:33;;;;;;;6.43;4.00;;;;;;;21.81;100.00;100837.78;5111073;28;20155;-73
2021/05/06 08:02:58;;;;;;;4.30;3.00;;;;;;;21.83;100.00;100827.75;5110983;28;20485;-71
2021/05/06 08:05:27;;;;;;;4.30;3.00;;;;;;;22.10;100.00;100832.66;5112142;28;20954;-74
2021/05/06 08:07:53;;;;;;;5.40;3.60;;;;;;;22.28;100.00;100836.91;5112134;27;20573;-76
2021/05/06 08:10:19;;;;;;;5.73;4.00;;;;;;;22.42;100.00;100836.16;5112161;28;20389;-75
2021/05/06 08:12:45;;;;;;;9.60;3.30;;;;;;;22.33;100.00;100838.06;5112322;28;20155;-72
2021/05/06 08:15:12;;;;;;;6.80;3.47;;;;;;;22.23;100.00;100848.16;5112240;28;20404;-72
2021/05/06 08:17:40;;;;;;;11.47;3.63;;;;;;;22.29;100.00;100842.13;5110737;28;20657;-72
2021/05/06 08:20:08;;;;;;;9.77;4.00;;;;;;;22.48;100.00;100832.78;5110572;28;20424;-71
2021/05/06 08:22:35;;;;;;;7.00;3.77;;;;;;;22.58;100.00;100829.84;5112047;28;20396;-74
2021/05/06 08:25:00;;;;;;;10.37;3.90;;;;;;;22.74;100.00;100835.09;5111806;28;20918;-73
2021/05/06 08:27:26;;;;;;;9.10;3.33;;;;;;;22.85;100.00;100833.84;5111889;28;20433;-74
2021/05/06 08:29:51;;;;;;;5.23;2.93;;;;;;;22.96;100.00;100828.91;5111304;28;20151;-73
2021/05/06 08:32:17;;;;;;;6.00;3.30;;;;;;;23.13;100.00;100828.78;5111916;28;20152;-75
2021/05/06 08:34:42;;;;;;;7.17;3.30;;;;;;;23.05;100.00;100845.78;5111285;28;20151;-73
2021/05/06 08:37:08;;;;;;;7.13;2.93;;;;;;;23.04;100.00;100825.31;5111726;28;20171;-74
2021/05/06 08:39:34;;;;;;;5.43;3.20;;;;;;;23.15;100.00;100848.19;5110311;28;20549;-73
2021/05/06 08:42:02;;;;;;;5.43;2.90;;;;;;;23.07;100.00;100846.41;5111386;28;20151;-73
2021/05/06 08:44:33;;;;;;;7.60;3.20;;;;;;;23.09;100.00;100825.63;5111677;28;20188;-74
2021/05/06 08:49:30;;;;;;;7.70;3.33;;;;;;;23.42;100.00;100833.31;5111485;28;20429;-74
2021/05/06 08:51:56;;;;;;;16.47;3.70;;;;;;;23.54;100.00;100843.44;5111257;28;20433;-74
2021/05/06 08:54:22;;;;;;;9.83;3.63;;;;;;;23.51;100.00;100835.75;5109594;28;20931;-75
2021/05/06 08:56:47;;;;;;;9.53;3.40;;;;;;;23.44;100.00;100844.72;5111259;28;20389;-75
2021/05/06 08:59:13;;;;;;;8.63;2.93;;;;;;;23.56;100.00;100850.44;5111107;28;20637;-75
2021/05/06 09:01:38;;;;;;;8.60;3.43;;;;;;;23.45;100.00;100849.06;5110911;28;20158;-75
2021/05/06 09:04:04;;;;;;;9.27;2.87;;;;;;;23.42;100.00;100860.16;5110763;28;20636;-73
2021/05/06 09:06:29;;;;;;;6.23;3.20;;;;;;;23.33;100.00;100866.63;5111016;28;20186;-73
2021/05/06 09:09:01;;;;;;;7.50;3.40;;;;;;;23.43;100.00;100864.53;5110965;28;20198;-73
2021/05/06 09:11:35;;;;;;;7.80;3.87;;;;;;;23.67;100.00;100861.59;5109543;28;20263;-75
2021/05/06 09:14:11;;;;;;;5.93;3.40;;;;;;;23.87;100.00;100864.53;5110948;28;20393;-75
2021/05/06 09:16:41;;;;;;;6.00;3.53;;;;;;;23.80;100.00;100856.44;5111030;28;20429;-72
2021/05/06 09:19:15;;;;;;;6.03;3.57;;;;;;;23.85;100.00;100863.91;5110954;28;20405;-72
2021/05/06 09:21:43;;;;;;;6.13;3.43;;;;;;;23.80;100.00;100860.94;5110833;28;20404;-71
2021/05/06 09:24:22;;;;;;;6.33;2.80;;;;;;;23.71;100.00;100868.25;5110962;28;20902;-73
2021/05/06 09:26:52;;;;;;;8.27;2.70;;;;;;;23.84;100.00;100872.16;5111112;28;20395;-74
2021/05/06 09:29:41;;;;;;;6.83;2.83;;;;;;;23.75;100.00;100864.19;5109992;28;20929;-75
2021/05/06 09:32:23;;;;;;;6.00;3.30;;;;;;;23.92;100.00;100872.88;5110757;28;20421;-74
2021/05/06 09:34:53;;;;;;;5.23;2.60;;;;;;;23.84;100.00;100864.94;5111025;28;20966;-74
2021/05/06 09:37:29;;;;;;;12.17;3.13;;;;;;;24.05;100.00;100878.44;5111083;28;20428;-74
2021/05/06 09:40:01;;;;;;;3.87;2.90;;;;;;;24.15;100.00;100864.69;5109392;28;20408;-73
2021/05/06 09:42:49;;;;;;;6.03;2.97;;;;;;;24.24;98.80;100849.31;5114810;28;20460;-73
2021/05/06 09:45:24;;;;;;;4.20;2.70;;;;;;;24.33;96.68;100862.50;5114632;28;20420;-70
2021/05/06 09:48:09;;;;;;;4.27;2.80;;;;;;;24.46;99.63;100856.41;5114940;28;20466;-74
2021/05/06 09:50:36;;;;;;;6.83;2.40;;;;;;;24.51;89.47;100878.16;5114653;28;20421;-71
2021/05/06 09:53:08;;;;;;;8.90;3.17;;;;;;;24.17;89.90;100859.13;5114537;28;20393;-73
2021/05/06 09:55:33;;;;;;;6.80;2.30;;;;;;;24.20;93.13;100864.97;5113049;28;20456;-74
2021/05/06 09:58:18;;;;;;;4.90;2.73;;;;;;;24.78;91.47;100857.75;5114354;28;20441;-75
2021/05/06 10:00:45;;;;;;;3.60;2.73;;;;;;;24.95;87.14;100855.66;5114114;28;20646;-74
2021/05/06 10:03:18;;;;;;;10.27;2.60;;;;;;;24.69;86.56;100858.91;5114099;28;20849;-74
2021/05/06 10:05:45;;;;;;;4.20;2.30;;;;;;;24.65;86.94;100852.28;5114307;28;20435;-71
2021/05/06 10:08:12;;;;;;;6.20;2.70;;;;;;;24.75;85.18;100851.94;5114261;28;20456;-75
2021/05/06 10:10:40;;;;;;;7.83;3.20;;;;;;;24.84;86.97;100850.78;5112391;28;20394;-74
2021/05/06 10:13:08;;;;;;;7.03;2.47;;;;;;;24.88;85.75;100868.22;5114163;28;20396;-73
2021/05/06 10:15:34;;;;;;;5.80;3.03;;;;;;;24.85;84.72;100882.84;5113890;28;20742;-73
2021/05/06 10:17:59;;;;;;;3.90;1.90;;;;;;;24.87;82.61;100867.38;5113997;28;20906;-74
2021/05/06 10:20:26;;;;;;;4.57;2.90;;;;;;;24.85;83.61;100873.94;5114227;28;20171;-72
2021/05/06 10:22:54;;;;;;;4.00;2.80;;;;;;;25.06;82.37;100860.53;5113881;28;20488;-73
2021/05/06 10:25:24;;;;;;;4.83;2.23;;;;;;;25.27;81.41;100862.34;5113908;28;20871;-73
2021/05/06 10:27:51;;;;;;;7.63;2.53;;;;;;;25.35;78.69;100872.13;5113722;28;20578;-71
2021/05/06 10:30:18;;;;;;;7.70;2.37;;;;;;;25.47;79.66;100867.88;5113591;28;20483;-72
2021/05/06 10:32:45;;;;;;;3.80;2.33;;;;;;;25.39;75.74;100859.94;5113786;28;20416;-74
2021/05/06 10:35:12;;;;;;;4.30;2.53;;;;;;;25.52;77.77;100873.47;5113445;27;20442;-74
2021/05/06 10:37:41;;;;;;;4.67;2.13;;;;;;;25.58;77.77;100859.25;5113356;28;20759;-72
2021/05/06 10:40:22;;;;;;;3.23;1.90;;;;;;;25.27;74.41;100875.81;5113775;28;20419;-76
2021/05/06 10:42:49;;;;;;;4.70;2.63;;;;;;;25.22;76.20;100870.16;5113553;28;20386;-70
2021/05/06 10:45:14;;;;;;;8.77;2.47;;;;;;;25.47;71.09;100878.66;5112909;27;20939;-70
2021/05/06 10:47:42;;;;;;;5.97;2.00;;;;;;;25.20;72.49;100887.53;5113817;28;20437;-75
2021/05/06 10:50:40;;;;;;;7.50;2.27;;;;;;;25.08;74.27;100877.28;5113764;28;20172;-75
2021/05/06 10:53:08;;;;;;;3.80;2.50;;;;;;;24.96;73.23;100869.94;5112889;28;20393;-74
2021/05/06 10:55:47;;;;;;;4.97;2.93;;;;;;;25.11;72.43;100885.00;5113172;28;20393;-74
2021/05/06 10:58:29;;;;;;;3.60;2.40;;;;;;;25.00;73.28;100882.78;5113273;28;20392;-73
2021/05/06 11:01:01;;;;;;;4.63;2.23;;;;;;;25.23;72.76;100892.50;5113213;28;20847;-74
2021/05/06 11:03:27;;;;;;;5.07;3.10;;;;;;;25.29;71.73;100892.56;5113006;28;20393;-74
2021/05/06 11:05:53;;;;;;;2.90;1.90;;;;;;;25.31;69.96;100874.38;5113235;27;20432;-75
2021/05/06 11:08:18;;;;;;;4.03;2.43;;;;;;;25.35;68.38;100889.09;5112769;27;20509;-76
2021/05/06 11:10:47;;;;;;;8.93;3.83;;;;;;;25.21;67.65;100873.06;5111893;28;20520;-76
2021/05/06 11:13:13;;;;;;;4.50;2.80;;;;;;;25.29;67.74;100884.50;5112856;28;20212;-76
2021/05/06 11:15:39;;;;;;;6.20;2.93;;;;;;;25.43;69.08;100880.06;5111380;28;20397;-71
2021/05/06 11:18:08;;;;;;;4.17;3.00;;;;;;;25.72;69.30;100870.97;5112895;28;20792;-74
2021/05/06 11:20:37;;;;;;;3.30;2.17;;;;;;;25.87;67.31;100871.66;5112960;28;20170;-74
2021/05/06 11:23:02;;;;;;;4.30;2.17;;;;;;;25.86;66.54;100878.09;5112680;28;20386;-73
2021/05/06 11:25:31;;;;;;;10.50;2.77;;;;;;;25.90;66.98;100883.88;5112672;28;20408;-71
2021/05/06 11:27:57;;;;;;;4.93;2.13;;;;;;;25.66;68.21;100877.94;5112218;28;20271;-76
2021/05/06 11:30:46;;;;;;;5.03;2.70;;;;;;;25.64;69.83;100885.38;5112871;28;20413;-75
2021/05/06 11:33:27;;;;;;;7.80;3.07;;;;;;;26.00;65.73;100871.72;5111981;28;20163;-73
2021/05/06 11:36:11;;;;;;;5.97;2.37;;;;;;;26.33;64.50;100872.88;5112020;28;20407;-74
2021/05/06 11:38:36;;;;;;;5.17;4.40;;;;;;;26.29;64.35;100878.66;5112367;28;20413;-75
2021/05/06 11:41:03;;;;;;;4.13;2.10;;;;;;;26.27;65.12;100871.81;5112265;28;20462;-74
2021/05/06 11:43:30;;;;;;;3.73;2.07;;;;;;;26.51;64.61;100865.06;5110929;28;20175;-77
2021/05/06 11:46:14;;;;;;;9.67;3.37;;;;;;;26.92;63.49;100872.22;5111959;28;20468;-75
2021/05/06 11:48:51;;;;;;;7.47;3.30;;;;;;;27.31;61.07;100874.09;5110757;28;20456;-75
2021/05/06 11:51:24;;;;;;;6.00;2.07;;;;;;;27.42;59.59;100872.63;5111984;28;20396;-77
2021/05/06 11:54:19;;;;;;;5.00;2.50;;;;;;;26.64;61.04;100875.91;5112055;28;20397;-73
2021/05/06 11:57:02;;;;;;;5.70;1.93;;;;;;;25.89;59.43;100888.44;5112072;28;20397;-76
2021/05/06 11:59:30;;;;;;;6.03;2.93;;;;;;;25.89;60.06;100871.47;5112352;28;20401;-73
2021/05/06 12:02:04;;;;;;;3.43;2.53;;;;;;;26.04;59.21;100864.06;5111850;28;20473;-76
2021/05/06 12:04:36;;;;;;;4.37;2.10;;;;;;;26.20;60.05;100879.06;5111090;28;20397;-75
2021/05/06 12:07:14;;;;;;;6.43;1.80;;;;;;;26.35;59.39;100893.19;5093767;28;20455;-73
2021/05/06 12:09:40;;;;;;;5.50;2.20;;;;;;;26.27;56.87;100883.44;5112072;28;20841;-76
2021/05/06 12:12:05;;;;;;;4.47;1.73;;;;;;;26.07;56.28;100881.69;5111696;28;20918;-76
2021/05/06 12:14:36;;;;;;;2.70;1.87;;;;;;;26.09;59.27;100887.72;5111673;28;20246;-74
2021/05/06 12:17:03;;;;;;;2.83;1.90;;;;;;;26.36;59.84;100877.84;5111762;28;20155;-74
2021/05/06 12:19:28;;;;;;;4.20;2.30;;;;;;;26.96;60.87;100874.28;5112111;28;20400;-73
2021/05/06 12:21:57;;;;;;;4.67;2.23;;;;;;;26.76;61.92;100890.44;5111350;28;20401;-73
2021/05/06 12:24:36;;;;;;;5.73;2.10;;;;;;;26.38;62.99;100890.13;5111712;28;20147;-73
2021/05/06 12:27:31;;;;;;;4.13;2.50;;;;;;;25.91;65.17;100886.38;5110910;28;20396;-70
2021/05/06 12:29:57;;;;;;;3.23;2.07;;;;;;;25.82;66.26;100884.06;5111471;28;20891;-72
2021/05/06 12:32:27;;;;;;;5.17;2.23;;;;;;;25.79;65.37;100887.16;5111249;28;20401;-76
2021/05/06 12:34:54;;;;;;;4.10;1.97;;;;;;;25.81;66.25;100888.59;5111201;28;20159;-72
2021/05/06 12:37:32;;;;;;;4.90;2.60;;;;;;;25.89;66.58;100896.53;5111296;28;20393;-74
2021/05/06 12:39:58;;;;;;;5.17;2.30;;;;;;;25.87;67.56;100895.91;5111263;28;20859;-76
2021/05/06 12:42:28;;;;;;;3.47;2.40;;;;;;;26.04;67.23;100891.00;5111246;27;20446;-73
2021/05/06 12:44:53;;;;;;;5.07;2.57;;;;;;;26.54;63.83;100891.66;5111030;28;20461;-73
2021/05/06 12:47:20;;;;;;;4.73;2.20;;;;;;;26.54;63.24;100892.47;5109462;28;20464;-73
2021/05/06 12:49:48;;;;;;;2.93;1.93;;;;;;;26.74;62.63;100875.50;5110710;28;20155;-72
2021/05/06 12:52:29;;;;;;;5.50;2.20;;;;;;;26.65;60.64;100888.34;5111171;28;20393;-76
2021/05/06 12:54:55;;;;;;;4.50;2.03;;;;;;;26.74;60.02;100897.88;5109183;28;20851;-75
2021/05/06 12:57:22;;;;;;;3.77;1.90;;;;;;;26.91;60.28;100903.75;5109955;28;20385;-72
2021/05/06 12:59:50;;;;;;;3.33;1.80;;;;;;;26.91;59.45;100892.97;5111219;28;20378;-74
2021/05/06 13:02:19;;;;;;;4.93;1.80;;;;;;;26.68;58.35;100887.13;5111393;28;20395;-74
2021/05/06 13:04:50;;;;;;;4.13;2.37;;;;;;;27.00;58.49;100907.91;5111412;28;20914;-74
2021/05/06 13:07:17;;;;;;;3.37;1.90;;;;;;;26.92;56.12;100901.88;5110845;28;20404;-74
2021/05/06 13:09:47;;;;;;;6.30;2.10;;;;;;;26.54;56.16;100899.72;5109302;28;20465;-75
2021/05/06 13:12:16;;;;;;;2.97;1.90;;;;;;;26.66;56.19;100906.16;5110844;28;20400;-75
2021/05/06 13:14:59;;;;;;;8.10;2.10;;;;;;;27.10;55.47;100896.72;5110786;28;20492;-74
2021/05/06 13:17:28;;;;;;;5.07;1.97;;;;;;;27.18;56.75;100896.50;5115220;28;20449;-73
2021/05/06 13:19:56;;;;;;;4.10;1.90;;;;;;;26.87;57.49;100896.25;5114946;28;20425;-71
2021/05/06 13:22:23;;;;;;;2.83;1.50;;;;;;;26.17;58.72;100906.41;5115123;28;20441;-76
2021/05/06 13:24:50;;;;;;;3.73;1.77;;;;;;;25.92;59.25;100922.22;5114963;28;20400;-74
2021/05/06 13:27:22;;;;;;;3.27;1.50;;;;;;;25.64;58.30;100906.09;5114953;28;20397;-73
2021/05/06 13:29:55;;;;;;;5.17;1.50;;;;;;;25.51;60.09;100901.44;5113322;28;20501;-74
2021/05/06 13:32:34;;;;;;;3.97;1.70;;;;;;;25.99;58.95;100917.69;5114756;28;20770;-74
2021/05/06 13:34:59;;;;;;;2.90;1.70;;;;;;;26.61;57.39;100913.22;5114731;28;20396;-76
2021/05/06 13:37:37;;;;;;;3.13;2.00;;;;;;;26.50;58.51;100903.84;5113558;28;20473;-75
2021/05/06 13:40:04;;;;;;;3.13;1.63;;;;;;;26.61;56.65;100911.38;5114881;28;20625;-73
2021/05/06 13:42:29;;;;;;;4.03;1.60;;;;;;;26.84;56.47;100908.31;5114055;27;20412;-72
2021/05/06 13:44:57;;;;;;;4.10;1.70;;;;;;;27.05;57.06;100905.47;5114777;28;20415;-74
2021/05/06 13:47:24;;;;;;;7.57;2.20;;;;;;;26.49;57.83;100910.28;5114362;28;20210;-76
2021/05/06 13:49:50;;;;;;;4.77;2.10;;;;;;;26.59;57.78;100910.72;5114668;28;20752;-71
2021/05/06 13:52:16;;;;;;;5.17;1.77;;;;;;;26.74;58.36;100907.84;5114110;28;20945;-74
2021/05/06 13:54:42;;;;;;;9.40;2.27;;;;;;;26.19;60.03;100910.56;5114284;28;20161;-71
2021/05/06 13:57:07;;;;;;;3.30;1.40;;;;;;;26.07;59.53;100911.31;5114295;28;20232;-71
2021/05/06 13:59:33;;;;;;;3.60;2.10;;;;;;;26.26;58.37;100908.72;5114734;28;20692;-74
2021/05/06 14:01:58;;;;;;;3.17;1.90;;;;;;;26.49;56.63;100916.50;5112649;28;20651;-74
2021/05/06 14:04:25;;;;;;;5.00;2.07;;;;;;;26.36;56.87;100904.81;5114319;28;20155;-73
2021/05/06 14:06:51;;;;;;;7.03;1.83;;;;;;;26.22;57.23;100898.53;5114232;28;20206;-74
2021/05/06 14:09:17;;;;;;;6.40;2.00;;;;;;;26.22;56.76;100907.47;5113737;28;20969;-74
2021/05/06 14:11:44;;;;;;;5.27;1.80;;;;;;;26.41;56.34;100908.59;5114415;28;20772;-73
2021/05/06 14:14:13;;;;;;;3.50;2.30;;;;;;;26.69;55.32;100916.56;5114645;28;20404;-76
2021/05/06 14:16:39;;;;;;;3.50;1.83;;;;;;;26.59;55.10;100910.72;5114530;28;20835;-73
2021/05/06 14:19:07;;;;;;;3.73;1.90;;;;;;;26.63;54.93;100900.38;5114133;28;20401;-74
2021/05/06 14:21:36;;;;;;;3.90;2.37;;;;;;;26.77;53.95;100894.81;5113551;28;20389;-74
2021/05/06 14:24:02;;;;;;;4.90;2.20;;;;;;;26.69;53.38;100908.47;5112510;28;20424;-73
2021/05/06 14:26:28;;;;;;;6.97;2.77;;;;;;;26.83;52.53;100906.66;5113509;28;20409;-71
2021/05/06 14:28:54;;;;;;;3.70;2.00;;;;;;;26.99;51.69;100903.53;5113530;28;20452;-73
2021/05/06 14:31:20;;;;;;;5.53;2.27;;;;;;;27.02;52.21;100916.63;5113877;28;20171;-73
2021/05/06 14:33:45;;;;;;;5.27;1.80;;;;;;;27.01;51.30;100916.81;5113814;28;20179;-72
2021/05/06 14:36:12;;;;;;;3.57;1.33;;;;;;;26.95;52.13;100914.94;5113848;28;20444;-72
2021/05/06 14:38:39;;;;;;;4.27;2.80;;;;;;;27.04;53.08;100928.06;5113514;28;20155;-74
2021/05/06 14:41:05;;;;;;;6.70;2.70;;;;;;;26.97;53.32;100924.47;5112551;28;20402;-72
2021/05/06 14:43:31;;;;;;;7.93;2.73;;;;;;;27.02;54.08;100919.31;5113810;28;20449;-75
2021/05/06 14:45:57;;;;;;;3.87;2.30;;;;;;;26.76;54.25;100922.81;5113598;28;20464;-72
2021/05/06 14:48:23;;;;;;;3.70;1.80;;;;;;;26.83;52.90;100930.91;5113495;28;20509;-72
2021/05/06 14:50:49;;;;;;;4.20;2.10;;;;;;;26.47;53.07;100921.28;5113638;28;20182;-74
2021/05/06 14:53:14;;;;;;;4.00;2.67;;;;;;;26.64;53.43;100927.13;5113607;28;20242;-74